createdAt,value
2022-11-01T00:01:45.790Z,78.10
2022-11-01T00:04:14.045Z,78.30
2022-11-01T00:06:42.303Z,78.30
2022-11-01T00:09:10.810Z,78.40
2022-11-01T00:11:39.206Z,78.50
2022-11-01T00:14:07.576Z,78.60
2022-11-01T00:16:36.014Z,78.90
2022-11-01T00:19:05.669Z,79.30
2022-11-01T00:21:33.927Z,80.10
2022-11-01T00:24:02.144Z,80.20
2022-11-01T00:26:31.189Z,80.30
2022-11-01T00:28:59.371Z,80.60
2022-11-01T00:31:27.971Z,80.80
2022-11-01T00:33:56.169Z,80.80
2022-11-01T00:36:26.137Z,80.70
2022-11-01T00:38:54.556Z,80.80
2022-11-01T00:41:22.777Z,80.30
2022-11-01T00:43:51.407Z,80.20
2022-11-01T00:46:19.702Z,80.10
2022-11-01T00:48:48.137Z,80.00
2022-11-01T00:51:16.391Z,80.00
2022-11-01T00:53:46.024Z,79.80
2022-11-01T00:56:14.210Z,79.90
2022-11-01T00:58:42.515Z,79.70
2022-11-01T01:01:10.987Z,79.60
2022-11-01T01:03:39.330Z,79.50
2022-11-01T01:06:07.819Z,79.60
2022-11-01T01:08:36.079Z,79.60
2022-11-01T01:11:06.102Z,79.50
2022-11-01T01:13:34.340Z,79.80
2022-11-01T01:16:02.822Z,79.50
2022-11-01T01:18:31.280Z,79.50
2022-11-01T01:21:03.826Z,79.50
2022-11-01T01:23:32.282Z,80.00
2022-11-01T01:26:00.800Z,79.50
2022-11-01T01:28:30.352Z,79.50
2022-11-01T01:30:58.539Z,79.70
2022-11-01T01:33:30.236Z,79.60
2022-11-01T01:36:01.653Z,79.50
2022-11-01T01:38:30.004Z,79.80
2022-11-01T01:41:19.288Z,79.50
2022-11-01T01:43:49.484Z,79.50
2022-11-01T01:46:17.684Z,79.70
2022-11-01T01:48:49.963Z,79.50
2022-11-01T01:51:21.889Z,79.70
2022-11-01T01:53:53.752Z,79.40
2022-11-01T01:56:25.309Z,79.30
2022-11-01T01:58:58.860Z,79.20
2022-11-01T02:01:28.462Z,79.50
2022-11-01T02:03:57.200Z,79.50
2022-11-01T02:06:27.120Z,79.60
2022-11-01T02:08:57.824Z,79.80
2022-11-01T02:11:26.033Z,80.00
2022-11-01T02:13:55.986Z,79.80
2022-11-01T02:16:40.696Z,80.10
2022-11-01T02:19:35.967Z,80.70
2022-11-01T02:22:10.993Z,80.60
2022-11-01T02:25:11.030Z,80.30
2022-11-01T02:28:01.907Z,80.90
2022-11-01T02:30:42.267Z,80.70
2022-11-01T02:33:22.744Z,80.60
2022-11-01T02:36:00.207Z,80.50
2022-11-01T02:38:34.615Z,81.10
2022-11-01T02:41:10.028Z,80.10
2022-11-01T02:43:45.341Z,80.20
2022-11-01T02:46:31.354Z,80.30
2022-11-01T02:49:01.032Z,80.00
2022-11-01T02:51:30.584Z,80.20
2022-11-01T02:54:02.658Z,80.20
2022-11-01T02:56:31.587Z,80.50
2022-11-01T02:59:00.658Z,80.20
2022-11-01T03:01:33.085Z,80.10
2022-11-01T03:04:04.282Z,80.30
2022-11-01T03:06:36.948Z,80.20
2022-11-01T03:09:08.521Z,80.20
2022-11-01T03:11:45.429Z,80.00
2022-11-01T03:14:24.970Z,80.00
2022-11-01T03:17:00.388Z,80.10
2022-11-01T03:19:39.203Z,79.90
2022-11-01T03:22:12.190Z,80.30
2022-11-01T03:24:47.079Z,80.00
2022-11-01T03:27:20.617Z,80.10
2022-11-01T03:29:56.799Z,80.00
2022-11-01T03:32:29.201Z,79.90
2022-11-01T03:35:01.435Z,80.10
2022-11-01T03:37:31.871Z,80.10
2022-11-01T03:40:04.192Z,80.00
2022-11-01T03:42:33.942Z,80.20
2022-11-01T03:45:11.706Z,80.00
2022-11-01T03:47:40.065Z,80.60
2022-11-01T03:50:18.358Z,80.20
2022-11-01T03:52:47.099Z,80.80
2022-11-01T03:55:19.488Z,80.30
2022-11-01T03:57:48.592Z,80.40
2022-11-01T04:00:18.260Z,80.40
2022-11-01T04:02:46.516Z,80.50
2022-11-01T04:05:16.375Z,80.40
2022-11-01T04:07:44.950Z,80.50
2022-11-01T04:10:14.319Z,80.70
2022-11-01T04:12:45.273Z,80.80
2022-11-01T04:15:31.968Z,80.80
2022-11-01T04:18:25.802Z,80.80
2022-11-01T04:20:55.746Z,81.20
2022-11-01T04:23:23.974Z,80.70
2022-11-01T04:25:52.171Z,80.60
2022-11-01T04:28:20.494Z,80.60
2022-11-01T04:30:48.674Z,80.60
2022-11-01T04:33:16.891Z,80.60
2022-11-01T04:35:45.590Z,80.50
2022-11-01T04:38:15.770Z,80.50
2022-11-01T04:40:44.909Z,80.80
2022-11-01T04:43:13.454Z,80.60
2022-11-01T04:45:42.634Z,80.60
2022-11-01T04:48:13.863Z,80.60
2022-11-01T04:50:43.034Z,80.70
2022-11-01T04:53:11.607Z,80.60
2022-11-01T04:55:41.327Z,80.70
2022-11-01T04:58:10.884Z,80.80
2022-11-01T05:00:40.110Z,80.70
2022-11-01T05:03:09.402Z,80.80
2022-11-01T05:05:39.096Z,80.90
2022-11-01T05:08:08.911Z,80.90
2022-11-01T05:10:41.341Z,81.00
2022-11-01T05:13:10.184Z,81.10
2022-11-01T05:15:43.755Z,81.00
2022-11-01T05:18:21.610Z,81.10
2022-11-01T05:20:49.901Z,81.00
2022-11-01T05:23:18.109Z,81.10
2022-11-01T05:25:47.711Z,81.30
2022-11-01T05:28:16.052Z,81.60
2022-11-01T05:30:44.743Z,81.60
2022-11-01T05:33:13.167Z,81.60
2022-11-01T05:35:41.692Z,81.70
2022-11-01T05:38:10.761Z,81.80
2022-11-01T05:40:39.021Z,81.90
2022-11-01T05:43:09.018Z,81.90
2022-11-01T05:45:37.340Z,82.10
2022-11-01T05:48:06.144Z,82.00
2022-11-01T05:50:34.400Z,82.20
2022-11-01T05:53:07.161Z,82.10
2022-11-01T05:55:35.524Z,82.40
2022-11-01T05:58:03.843Z,82.00
2022-11-01T06:00:34.754Z,82.00
2022-11-01T06:03:03.766Z,82.20
2022-11-01T06:05:32.926Z,82.10
2022-11-01T06:08:04.198Z,82.10
2022-11-01T06:10:33.466Z,82.40
2022-11-01T06:13:02.016Z,82.20
2022-11-01T06:15:33.175Z,82.20
2022-11-01T06:18:06.460Z,82.30
2022-11-01T06:20:36.868Z,82.50
2022-11-01T06:23:10.371Z,82.20
2022-11-01T06:25:38.932Z,82.70
2022-11-01T06:28:07.149Z,82.30
2022-11-01T06:30:35.357Z,82.40
2022-11-01T06:33:05.389Z,82.40
2022-11-01T06:35:34.395Z,82.50
2022-11-01T06:38:07.496Z,82.50
2022-11-01T06:40:36.234Z,82.80
2022-11-01T06:43:06.384Z,82.50
2022-11-01T06:45:34.754Z,82.50
2022-11-01T06:48:04.738Z,82.40
2022-11-01T06:50:33.738Z,82.40
2022-11-01T06:53:02.344Z,82.50
2022-11-01T06:55:31.097Z,82.40
2022-11-01T06:58:01.146Z,82.50
2022-11-01T07:00:30.988Z,82.50
2022-11-01T07:03:00.300Z,82.50
2022-11-01T07:05:34.353Z,82.50
2022-11-01T07:08:07.007Z,82.50
2022-11-01T07:10:36.888Z,82.50
2022-11-01T07:13:07.098Z,82.50
2022-11-01T07:15:35.756Z,82.50
2022-11-01T07:18:06.010Z,83.10
2022-11-01T07:20:41.967Z,82.50
2022-11-01T07:23:13.536Z,82.50
2022-11-01T07:25:42.597Z,82.40
2022-11-01T07:28:10.921Z,82.30
2022-11-01T07:30:39.383Z,82.30
2022-11-01T07:33:07.755Z,82.40
2022-11-01T07:35:37.413Z,82.40
2022-11-01T07:38:09.750Z,82.50
2022-11-01T07:40:41.435Z,82.40
2022-11-01T07:43:09.716Z,82.40
2022-11-01T07:45:38.484Z,82.40
2022-11-01T07:48:10.373Z,82.60
2022-11-01T07:50:42.796Z,82.70
2022-11-01T07:53:16.081Z,82.70
2022-11-01T07:55:44.407Z,82.70
2022-11-01T07:58:13.715Z,82.40
2022-11-01T08:00:42.767Z,82.10
2022-11-01T08:03:13.956Z,82.30
2022-11-01T08:05:44.382Z,82.50
2022-11-01T08:08:13.676Z,82.60
2022-11-01T08:10:42.326Z,82.80
2022-11-01T08:13:16.591Z,82.80
2022-11-01T08:15:45.188Z,83.00
2022-11-01T08:18:13.690Z,82.70
2022-11-01T08:20:43.652Z,82.70
2022-11-01T08:23:12.482Z,82.50
2022-11-01T08:25:41.229Z,82.00
2022-11-01T08:28:12.536Z,81.90
2022-11-01T08:30:43.188Z,81.70
2022-11-01T08:33:11.851Z,81.40
2022-11-01T08:35:41.144Z,81.10
2022-11-01T08:38:11.689Z,81.60
2022-11-01T08:40:40.334Z,80.90
2022-11-01T08:43:08.572Z,80.70
2022-11-01T08:45:36.981Z,80.60
2022-11-01T08:48:06.570Z,80.60
2022-11-01T08:50:36.009Z,80.40
2022-11-01T08:53:06.713Z,80.40
2022-11-01T08:55:38.083Z,80.10
2022-11-01T08:58:07.199Z,79.80
2022-11-01T09:00:35.886Z,79.60
2022-11-01T09:03:04.436Z,79.50
2022-11-01T09:05:32.688Z,79.50
2022-11-01T09:08:02.761Z,80.20
2022-11-01T09:10:32.294Z,79.50
2022-11-01T09:13:02.748Z,79.40
2022-11-01T09:15:31.694Z,79.40
2022-11-01T09:18:00.061Z,79.40
2022-11-01T09:20:28.461Z,79.50
2022-11-01T09:22:57.202Z,79.90
2022-11-01T09:25:25.806Z,80.30
2022-11-01T09:27:56.696Z,80.60
2022-11-01T09:30:27.007Z,80.50
2022-11-01T09:32:55.206Z,79.90
2022-11-01T09:35:23.867Z,79.30
2022-11-01T09:37:58.741Z,78.70
2022-11-01T09:40:28.930Z,78.10
2022-11-01T09:43:01.496Z,78.20
2022-11-01T09:45:33.981Z,78.70
2022-11-01T09:48:04.614Z,78.60
2022-11-01T09:50:35.719Z,78.10
2022-11-01T09:53:08.352Z,77.80
2022-11-01T09:55:46.990Z,77.40
2022-11-01T09:58:25.066Z,76.30
2022-11-01T10:01:01.751Z,75.90
2022-11-01T10:03:46.613Z,75.80
2022-11-01T10:06:20.888Z,75.60
2022-11-01T10:09:04.079Z,75.60
2022-11-01T10:11:52.474Z,75.80
2022-11-01T10:14:36.257Z,76.00
2022-11-01T10:17:14.529Z,76.10
2022-11-01T10:19:45.565Z,76.00
2022-11-01T10:22:17.126Z,76.00
2022-11-01T10:24:51.547Z,75.40
2022-11-01T10:27:30.693Z,75.10
2022-11-01T10:30:04.686Z,75.00
2022-11-01T10:32:41.292Z,75.20
2022-11-01T10:35:18.608Z,74.00
2022-11-01T10:38:11.261Z,73.40
2022-11-01T10:40:47.864Z,73.30
2022-11-01T10:43:19.479Z,72.70
2022-11-01T10:45:50.583Z,72.90
2022-11-01T10:48:28.826Z,72.20
2022-11-01T10:51:01.184Z,71.10
2022-11-01T10:53:31.574Z,71.10
2022-11-01T10:56:05.921Z,71.80
2022-11-01T10:58:39.289Z,71.10
2022-11-01T11:01:11.278Z,70.90
2022-11-01T11:03:42.729Z,69.10
2022-11-01T11:06:13.056Z,66.40
2022-11-01T11:08:44.087Z,64.50
2022-11-01T11:11:15.691Z,63.20
2022-11-01T11:13:48.270Z,59.30
2022-11-01T11:16:24.907Z,58.00
2022-11-01T11:19:16.172Z,56.00
2022-11-01T11:21:45.721Z,54.90
2022-11-01T11:24:21.823Z,55.20
2022-11-01T11:26:54.324Z,52.70
2022-11-01T11:29:29.942Z,53.30
2022-11-01T11:31:59.412Z,58.60
2022-11-01T11:34:31.971Z,52.70
2022-11-01T11:37:01.708Z,51.70
2022-11-01T11:39:32.016Z,51.50
2022-11-01T11:42:18.975Z,49.80
2022-11-01T11:44:52.056Z,48.60
2022-11-01T11:47:25.650Z,49.10
2022-11-01T11:49:58.099Z,48.50
2022-11-01T11:52:38.368Z,47.90
2022-11-01T11:55:08.831Z,46.40
2022-11-01T11:57:37.090Z,47.40
2022-11-01T12:00:07.609Z,47.00
2022-11-01T12:02:38.823Z,46.30
2022-11-01T12:05:11.343Z,45.40
2022-11-01T12:07:48.911Z,44.10
2022-11-01T12:10:32.571Z,43.50
2022-11-01T12:13:01.761Z,43.10
2022-11-01T12:15:35.775Z,42.90
2022-11-01T12:18:15.600Z,41.30
2022-11-01T12:20:51.278Z,40.30
2022-11-01T12:23:29.687Z,38.60
2022-11-01T12:26:00.340Z,37.90
2022-11-01T12:28:35.430Z,38.30
2022-11-01T12:31:18.543Z,37.60
2022-11-01T12:33:52.327Z,37.70
2022-11-01T12:36:28.899Z,37.50
2022-11-01T12:39:01.023Z,37.10
2022-11-01T12:41:35.844Z,37.80
2022-11-01T12:44:14.624Z,37.50
2022-11-01T12:46:48.157Z,36.60
2022-11-01T12:49:25.722Z,36.90
2022-11-01T12:52:01.718Z,36.40
2022-11-01T12:54:36.269Z,36.80
2022-11-01T12:57:10.232Z,39.10
2022-11-01T12:59:39.613Z,38.90
2022-11-01T13:02:25.492Z,38.20
2022-11-01T13:05:05.389Z,37.10
2022-11-01T13:07:49.198Z,37.50
2022-11-01T13:10:23.687Z,37.20
2022-11-01T13:13:01.015Z,38.00
2022-11-01T13:15:36.589Z,37.80
2022-11-01T13:18:15.358Z,37.70
2022-11-01T13:20:54.003Z,36.80
2022-11-01T13:23:31.460Z,36.50
2022-11-01T13:26:05.074Z,36.50
2022-11-01T13:28:49.197Z,35.80
2022-11-01T13:31:28.525Z,32.40
2022-11-01T13:34:21.427Z,32.30
2022-11-01T13:36:56.736Z,31.40
2022-11-01T13:39:38.026Z,30.00
2022-11-01T13:42:11.798Z,29.50
2022-11-01T13:44:44.876Z,30.30
2022-11-01T13:47:42.302Z,30.30
2022-11-01T13:50:46.747Z,31.10
2022-11-01T13:53:21.890Z,31.00
2022-11-01T13:55:55.787Z,30.80
2022-11-01T13:58:25.385Z,30.80
2022-11-01T14:00:55.818Z,31.60
2022-11-01T14:03:27.779Z,31.30
2022-11-01T14:09:20.271Z,32.60
2022-11-01T14:11:51.684Z,31.30
2022-11-01T14:14:51.388Z,31.40
2022-11-01T14:17:39.645Z,32.00
2022-11-01T14:20:46.380Z,31.60
2022-11-01T14:23:54.189Z,31.50
2022-11-01T14:26:38.051Z,31.80
2022-11-01T14:29:12.232Z,30.60
2022-11-01T14:31:43.941Z,30.50
2022-11-01T14:34:27.720Z,31.10
2022-11-01T14:36:59.015Z,30.60
2022-11-01T14:39:34.262Z,31.20
2022-11-01T14:42:06.023Z,30.50
2022-11-01T14:44:39.521Z,30.70
2022-11-01T14:47:23.493Z,30.50
2022-11-01T14:49:56.106Z,30.80
2022-11-01T14:52:31.218Z,30.90
2022-11-01T14:55:08.101Z,30.60
2022-11-01T14:57:36.536Z,30.20
2022-11-01T15:00:26.597Z,31.10
2022-11-01T15:02:55.157Z,30.60
2022-11-01T15:05:23.846Z,31.20
2022-11-01T15:07:54.075Z,30.90
2022-11-01T15:10:22.543Z,30.80
2022-11-01T15:12:54.896Z,30.80
2022-11-01T15:15:26.198Z,30.20
2022-11-01T15:18:00.714Z,30.60
2022-11-01T15:20:36.247Z,30.50
2022-11-01T15:23:09.185Z,31.10
2022-11-01T15:25:38.565Z,31.40
2022-11-01T15:28:06.832Z,32.20
2022-11-01T15:30:36.791Z,32.50
2022-11-01T15:33:16.274Z,33.40
2022-11-01T15:35:44.733Z,34.10
2022-11-01T15:38:20.884Z,35.00
2022-11-01T15:40:50.405Z,35.30
2022-11-01T15:43:20.468Z,35.90
2022-11-01T15:45:54.895Z,36.30
2022-11-01T15:48:26.853Z,37.60
2022-11-01T15:50:58.609Z,38.60
2022-11-01T15:53:30.673Z,39.60
2022-11-01T15:56:04.012Z,40.60
2022-11-01T15:58:33.372Z,41.20
2022-11-01T16:01:04.874Z,41.20
2022-11-01T16:03:37.042Z,41.90
2022-11-01T16:06:13.350Z,42.40
2022-11-01T16:08:47.785Z,42.80
2022-11-01T16:11:20.935Z,43.20
2022-11-01T16:13:51.414Z,43.50
2022-11-01T16:16:21.068Z,43.60
2022-11-01T16:18:49.340Z,43.80
2022-11-01T16:21:35.523Z,44.00
2022-11-01T16:24:15.584Z,44.50
2022-11-01T16:27:00.046Z,44.40
2022-11-01T16:29:42.729Z,44.70
2022-11-01T16:32:19.793Z,44.80
2022-11-01T16:34:48.152Z,44.70
2022-11-01T16:37:23.777Z,44.90
2022-11-01T16:39:52.381Z,45.30
2022-11-01T16:42:21.627Z,45.30
2022-11-01T16:44:54.952Z,45.50
2022-11-01T16:47:24.629Z,45.70
2022-11-01T16:49:55.066Z,45.40
2022-11-01T16:52:23.548Z,45.50
2022-11-01T16:54:52.302Z,45.70
2022-11-01T16:57:26.556Z,46.00
2022-11-01T16:59:55.683Z,46.40
2022-11-01T17:02:28.109Z,46.30
2022-11-01T17:04:59.921Z,46.50
2022-11-01T17:07:28.203Z,46.60
2022-11-01T17:09:56.559Z,46.70
2022-11-01T17:12:24.787Z,46.80
2022-11-01T17:14:53.682Z,46.90
2022-11-01T17:17:24.862Z,47.00
2022-11-01T17:20:00.332Z,47.30
2022-11-01T17:22:33.943Z,47.60
2022-11-01T17:25:04.523Z,47.60
2022-11-01T17:27:32.965Z,48.20
2022-11-01T17:30:01.310Z,47.60
2022-11-01T17:32:29.627Z,47.70
2022-11-01T17:34:59.297Z,47.70
2022-11-01T17:37:31.515Z,47.90
2022-11-01T17:40:00.004Z,47.90
2022-11-01T17:42:28.383Z,48.00
2022-11-01T17:44:56.696Z,48.10
2022-11-01T17:47:25.144Z,48.20
2022-11-01T17:49:53.390Z,48.30
2022-11-01T17:52:24.541Z,48.40
2022-11-01T17:54:55.346Z,48.50
2022-11-01T17:57:23.798Z,48.70
2022-11-01T17:59:52.146Z,48.60
2022-11-01T18:02:20.466Z,48.70
2022-11-01T18:04:49.407Z,48.80
2022-11-01T18:07:17.639Z,49.00
2022-11-01T18:09:47.277Z,49.10
2022-11-01T18:12:23.041Z,49.30
2022-11-01T18:14:58.144Z,49.50
2022-11-01T18:17:48.328Z,49.70
2022-11-01T18:20:31.853Z,50.00
2022-11-01T18:23:05.349Z,50.00
2022-11-01T18:25:40.538Z,50.20
2022-11-01T18:28:14.286Z,50.60
2022-11-01T18:30:44.747Z,50.80
2022-11-01T18:33:19.872Z,50.80
2022-11-01T18:35:54.397Z,51.20
2022-11-01T18:38:31.722Z,51.50
2022-11-01T18:41:02.688Z,51.90
2022-11-01T18:43:33.871Z,52.00
2022-11-01T18:46:23.812Z,52.20
2022-11-01T18:48:59.655Z,52.40
2022-11-01T18:51:30.243Z,52.50
2022-11-01T18:54:22.894Z,52.60
2022-11-01T18:56:55.077Z,53.00
2022-11-01T18:59:29.339Z,52.90
2022-11-01T19:02:01.797Z,53.20
2022-11-01T19:04:35.611Z,53.20
2022-11-01T19:07:12.610Z,53.40
2022-11-01T19:09:43.964Z,53.90
2022-11-01T19:12:23.919Z,53.90
2022-11-01T19:14:58.689Z,54.80
2022-11-01T19:17:29.242Z,54.70
2022-11-01T19:19:59.904Z,55.00
2022-11-01T19:22:37.929Z,55.30
2022-11-01T19:25:19.831Z,55.90
2022-11-01T19:27:51.092Z,56.20
2022-11-01T19:30:25.136Z,55.80
2022-11-01T19:32:55.304Z,56.30
2022-11-01T19:35:24.059Z,56.20
2022-11-01T19:37:58.229Z,56.20
2022-11-01T19:40:29.450Z,56.60
2022-11-01T19:43:01.361Z,56.70
2022-11-01T19:45:34.334Z,56.80
2022-11-01T19:48:04.841Z,57.10
2022-11-01T19:50:39.474Z,56.70
2022-11-01T19:53:20.254Z,57.10
2022-11-01T19:55:53.589Z,57.40
2022-11-01T19:58:27.147Z,57.20
2022-11-01T20:01:37.769Z,56.80
2022-11-01T20:04:15.652Z,57.30
2022-11-01T20:06:49.922Z,57.00
2022-11-01T20:09:23.286Z,56.90
2022-11-01T20:12:03.993Z,57.10
2022-11-01T20:14:35.287Z,56.40
2022-11-01T20:17:03.607Z,56.70
2022-11-01T20:19:32.417Z,56.90
2022-11-01T20:22:00.697Z,57.20
2022-11-01T20:24:30.426Z,57.30
2022-11-01T20:26:59.761Z,57.50
2022-11-01T20:29:28.296Z,57.60
2022-11-01T20:31:57.992Z,57.80
2022-11-01T20:34:27.312Z,57.90
2022-11-01T20:37:26.854Z,57.80
2022-11-01T20:39:44.391Z,57.80
2022-11-01T20:42:12.736Z,57.80
2022-11-01T20:44:41.031Z,58.10
2022-11-01T20:47:10.637Z,58.30
2022-11-01T20:49:38.900Z,58.50
2022-11-01T20:52:37.795Z,58.40
2022-11-01T20:54:55.682Z,58.40
2022-11-01T20:57:28.508Z,58.40
2022-11-01T20:59:57.213Z,58.60
2022-11-01T21:02:28.130Z,58.60
2022-11-01T21:05:01.867Z,58.80
2022-11-01T21:07:31.152Z,59.00
2022-11-01T21:10:01.295Z,58.80
2022-11-01T21:12:42.559Z,59.00
2022-11-01T21:15:33.655Z,59.50
2022-11-01T21:18:41.846Z,59.80
2022-11-01T21:21:32.292Z,59.60
2022-11-01T21:24:02.162Z,59.60
2022-11-01T21:26:34.254Z,59.10
2022-11-01T21:29:16.600Z,59.30
2022-11-01T21:31:46.337Z,59.70
2022-11-01T21:34:30.891Z,59.30
2022-11-01T21:37:00.918Z,60.10
2022-11-01T21:39:32.993Z,59.50
2022-11-01T21:42:04.441Z,59.70
2022-11-01T21:44:39.635Z,59.70
2022-11-01T21:47:19.472Z,59.90
2022-11-01T21:49:49.514Z,60.20
2022-11-01T21:52:19.280Z,59.90
2022-11-01T21:54:48.308Z,59.90
2022-11-01T21:57:17.811Z,60.10
2022-11-01T21:59:46.179Z,60.30
2022-11-01T22:02:16.321Z,60.30
2022-11-01T22:04:45.152Z,60.50
2022-11-01T22:07:14.860Z,60.50
2022-11-01T22:09:46.291Z,60.80
2022-11-01T22:12:14.581Z,60.80
2022-11-01T22:14:42.806Z,60.70
2022-11-01T22:17:11.050Z,60.80
2022-11-01T22:19:39.454Z,60.90
2022-11-01T22:22:07.681Z,61.10
2022-11-01T22:24:37.260Z,61.20
2022-11-01T22:27:05.542Z,61.70
2022-11-01T22:29:33.771Z,61.60
2022-11-01T22:32:02.420Z,61.80
2022-11-01T22:34:30.689Z,61.90
2022-11-01T22:36:58.901Z,62.10
2022-11-01T22:39:28.769Z,62.10
2022-11-01T22:41:58.370Z,62.20
2022-11-01T22:44:28.944Z,62.30
2022-11-01T22:46:59.551Z,62.20
2022-11-01T22:49:29.864Z,62.20
2022-11-01T22:52:01.054Z,62.20
2022-11-01T22:54:40.001Z,62.20
2022-11-01T22:57:16.704Z,62.60
2022-11-01T22:59:48.142Z,62.70
2022-11-01T23:02:30.307Z,62.50
2022-11-01T23:05:19.847Z,63.30
2022-11-01T23:07:49.917Z,62.90
2022-11-01T23:10:30.253Z,62.70
2022-11-01T23:13:37.781Z,63.40
2022-11-01T23:16:21.521Z,63.50
2022-11-01T23:18:49.803Z,63.60
2022-11-01T23:21:18.992Z,63.20
2022-11-01T23:23:48.553Z,63.50
2022-11-01T23:26:17.694Z,63.60
2022-11-01T23:28:51.190Z,63.60
2022-11-01T23:31:20.049Z,64.20
2022-11-01T23:33:50.167Z,64.10
2022-11-01T23:36:23.950Z,64.50
2022-11-01T23:38:55.943Z,64.80
2022-11-01T23:41:27.505Z,65.00
2022-11-01T23:43:59.471Z,65.00
2022-11-01T23:46:28.435Z,65.40
2022-11-01T23:49:01.910Z,65.10
2022-11-01T23:51:31.346Z,65.60
2022-11-01T23:54:01.104Z,65.30
2022-11-01T23:56:29.691Z,65.40
2022-11-01T23:59:04.234Z,65.40
